createdAt,value
2017-11-11T00:00:46.638Z,6.63
2017-11-11T00:01:53.603Z,6.64
2017-11-11T00:03:00.407Z,6.62
2017-11-11T00:04:07.305Z,6.62
2017-11-11T00:05:14.067Z,6.60
2017-11-11T00:07:28.215Z,6.57
2017-11-11T00:08:35.002Z,6.57
2017-11-11T00:09:41.834Z,6.55
2017-11-11T00:10:48.587Z,6.53
2017-11-11T00:11:55.430Z,6.53
2017-11-11T00:13:02.482Z,6.52
2017-11-11T00:14:09.201Z,6.51
2017-11-11T00:15:16.139Z,6.49
2017-11-11T00:16:23.039Z,6.47
2017-11-11T00:17:29.795Z,6.47
2017-11-11T00:18:36.574Z,6.46
2017-11-11T00:19:43.257Z,6.46
2017-11-11T00:20:50.574Z,6.45
2017-11-11T00:21:57.365Z,6.41
2017-11-11T00:23:04.186Z,6.42
2017-11-11T00:24:10.892Z,6.41
2017-11-11T00:25:17.737Z,6.40
2017-11-11T00:26:24.616Z,6.38
2017-11-11T00:27:31.278Z,6.37
2017-11-11T00:28:38.155Z,6.36
2017-11-11T00:29:44.860Z,6.36
2017-11-11T00:30:51.722Z,6.34
2017-11-11T00:31:58.462Z,6.34
2017-11-11T00:33:05.665Z,6.33
2017-11-11T00:34:12.494Z,6.32
2017-11-11T00:35:19.262Z,6.30
2017-11-11T00:36:26.278Z,6.30
2017-11-11T00:37:33.034Z,6.28
2017-11-11T00:38:39.909Z,6.28
2017-11-11T00:39:46.770Z,6.26
2017-11-11T00:40:53.486Z,6.25
2017-11-11T00:42:00.377Z,6.23
2017-11-11T00:43:07.154Z,6.21
2017-11-11T00:44:13.994Z,6.23
2017-11-11T00:45:20.814Z,6.22
2017-11-11T00:46:27.563Z,6.18
2017-11-11T00:47:34.365Z,6.19
2017-11-11T00:48:41.142Z,6.17
2017-11-11T00:49:47.850Z,6.17
2017-11-11T00:50:54.691Z,6.16
2017-11-11T00:52:01.438Z,6.15
2017-11-11T00:53:08.313Z,6.15
2017-11-11T00:54:15.068Z,6.12
2017-11-11T00:55:21.901Z,6.13
2017-11-11T00:56:28.709Z,6.09
2017-11-11T00:57:35.557Z,6.10
2017-11-11T00:58:42.439Z,6.09
2017-11-11T00:59:49.146Z,6.09
2017-11-11T01:00:55.856Z,6.07
2017-11-11T01:02:02.758Z,6.06
2017-11-11T01:03:09.558Z,6.04
2017-11-11T01:04:16.361Z,6.04
2017-11-11T01:05:23.229Z,6.04
2017-11-11T01:06:29.995Z,6.02
2017-11-11T01:07:36.941Z,6.01
2017-11-11T01:08:43.774Z,6.00
2017-11-11T01:09:50.457Z,6.00
2017-11-11T01:10:57.164Z,5.99
2017-11-11T01:12:04.037Z,5.98
2017-11-11T01:13:11.103Z,5.97
2017-11-11T01:14:17.990Z,5.96
2017-11-11T01:15:24.819Z,5.95
2017-11-11T01:16:31.614Z,5.94
2017-11-11T01:17:38.363Z,5.94
2017-11-11T01:18:45.351Z,5.93
2017-11-11T01:19:52.219Z,5.91
2017-11-11T01:20:59.001Z,5.92
2017-11-11T01:22:05.773Z,5.92
2017-11-11T01:23:12.535Z,5.90
2017-11-11T01:24:19.590Z,5.88
2017-11-11T01:25:26.490Z,5.89
2017-11-11T01:26:33.402Z,5.88
2017-11-11T01:27:40.306Z,5.87
2017-11-11T01:28:47.236Z,5.87
2017-11-11T01:29:54.045Z,5.85
2017-11-11T01:31:00.850Z,5.87
2017-11-11T01:32:07.595Z,5.85
2017-11-11T01:33:14.395Z,5.85
2017-11-11T01:34:21.154Z,5.83
2017-11-11T01:35:27.927Z,5.82
2017-11-11T01:36:34.745Z,5.83
2017-11-11T01:37:41.531Z,5.81
2017-11-11T01:38:48.426Z,5.82
2017-11-11T01:39:55.424Z,5.82
2017-11-11T01:41:02.154Z,5.81
2017-11-11T01:42:08.982Z,5.79
2017-11-11T01:43:15.846Z,5.78
2017-11-11T01:44:22.801Z,5.78
2017-11-11T01:45:29.561Z,5.77
2017-11-11T01:46:36.346Z,5.77
2017-11-11T01:47:43.093Z,5.76
2017-11-11T01:48:49.841Z,5.77
2017-11-11T01:49:56.673Z,5.76
2017-11-11T01:51:03.609Z,5.76
2017-11-11T01:52:10.366Z,5.75
2017-11-11T01:53:17.374Z,5.74
2017-11-11T01:54:24.146Z,5.75
2017-11-11T01:55:30.973Z,5.73
2017-11-11T01:56:37.762Z,5.73
2017-11-11T01:57:44.557Z,5.73
2017-11-11T01:58:51.319Z,5.73
2017-11-11T01:59:58.167Z,5.70
2017-11-11T02:01:05.145Z,5.71
2017-11-11T02:02:12.148Z,5.70
2017-11-11T02:03:19.103Z,5.70
2017-11-11T02:04:26.090Z,5.69
2017-11-11T02:05:32.862Z,5.67
2017-11-11T02:06:39.737Z,5.68
2017-11-11T02:07:46.494Z,5.66
2017-11-11T02:08:53.293Z,5.67
2017-11-11T02:10:00.255Z,5.67
2017-11-11T02:11:07.330Z,5.66
2017-11-11T02:12:14.289Z,5.67
2017-11-11T02:13:21.129Z,5.66
2017-11-11T02:14:28.281Z,5.64
2017-11-11T02:15:34.666Z,5.65
2017-11-11T02:16:41.536Z,5.65
2017-11-11T02:17:48.400Z,5.63
2017-11-11T02:18:55.290Z,5.62
2017-11-11T02:20:02.040Z,5.62
2017-11-11T02:21:09.122Z,5.63
2017-11-11T02:22:15.878Z,5.62
2017-11-11T02:23:22.850Z,5.61
2017-11-11T02:24:29.809Z,5.61
2017-11-11T02:25:36.753Z,5.60
2017-11-11T02:26:43.614Z,5.61
2017-11-11T02:27:50.650Z,5.57
2017-11-11T02:28:57.370Z,5.58
2017-11-11T02:30:04.267Z,5.58
2017-11-11T02:31:11.270Z,5.59
2017-11-11T02:32:18.142Z,5.59
2017-11-11T02:33:25.059Z,5.58
2017-11-11T02:34:31.981Z,5.57
2017-11-11T02:35:38.807Z,5.57
2017-11-11T02:36:45.782Z,5.57
2017-11-11T02:37:52.727Z,5.58
2017-11-11T02:38:59.635Z,5.56
2017-11-11T02:40:06.710Z,5.56
2017-11-11T02:41:13.507Z,5.55
2017-11-11T02:42:20.313Z,5.56
2017-11-11T02:43:27.054Z,5.55
2017-11-11T02:44:34.047Z,5.54
2017-11-11T02:45:40.987Z,5.54
2017-11-11T02:46:47.926Z,5.54
2017-11-11T02:47:55.009Z,5.53
2017-11-11T02:49:02.031Z,5.52
2017-11-11T02:50:08.979Z,5.52
2017-11-11T02:51:15.793Z,5.52
2017-11-11T02:52:22.789Z,5.51
2017-11-11T02:53:29.730Z,5.52
2017-11-11T02:54:37.074Z,5.52
2017-11-11T02:55:43.781Z,5.50
2017-11-11T02:56:51.137Z,5.51
2017-11-11T02:57:57.906Z,5.52
2017-11-11T02:59:04.711Z,5.49
2017-11-11T03:00:11.551Z,5.50
2017-11-11T03:01:18.367Z,5.49
2017-11-11T03:02:25.111Z,5.49
2017-11-11T03:03:32.043Z,5.50
2017-11-11T03:04:38.807Z,5.49
2017-11-11T03:05:45.703Z,5.50
2017-11-11T03:06:52.557Z,5.50
2017-11-11T03:07:59.414Z,5.50
2017-11-11T03:09:06.307Z,5.49
2017-11-11T03:10:14.385Z,5.47
2017-11-11T03:11:20.202Z,5.49
2017-11-11T03:12:26.934Z,5.49
2017-11-11T03:13:33.743Z,5.47
2017-11-11T03:14:40.615Z,5.47
2017-11-11T03:15:47.311Z,5.47
2017-11-11T03:16:54.185Z,5.47
2017-11-11T03:18:00.865Z,5.46
2017-11-11T03:19:07.753Z,5.47
2017-11-11T03:20:14.717Z,5.45
2017-11-11T03:21:21.534Z,5.46
2017-11-11T03:22:28.246Z,5.45
2017-11-11T03:23:35.098Z,5.45
2017-11-11T03:24:41.962Z,5.46
2017-11-11T03:25:48.694Z,5.47
2017-11-11T03:26:55.402Z,5.44
2017-11-11T03:28:02.233Z,5.45
2017-11-11T03:29:08.999Z,5.46
2017-11-11T03:30:15.877Z,5.44
2017-11-11T03:31:22.660Z,5.45
2017-11-11T03:32:29.502Z,5.46
2017-11-11T03:33:36.290Z,5.44
2017-11-11T03:34:43.103Z,5.44
2017-11-11T03:35:49.770Z,5.44
2017-11-11T03:36:57.108Z,5.44
2017-11-11T03:38:03.847Z,5.44
2017-11-11T03:39:10.976Z,5.45
2017-11-11T03:40:17.620Z,5.44
2017-11-11T03:41:24.781Z,5.44
2017-11-11T03:42:31.910Z,5.44
2017-11-11T03:43:38.622Z,5.45
2017-11-11T03:44:46.026Z,5.45
2017-11-11T03:45:52.829Z,5.44
2017-11-11T03:46:39.919Z,5.42
2017-11-11T03:47:46.629Z,5.45
2017-11-11T03:48:53.521Z,5.45
2017-11-11T03:50:00.449Z,5.45
2017-11-11T03:51:07.326Z,5.45
2017-11-11T03:52:14.118Z,5.44
2017-11-11T03:53:21.066Z,5.45
2017-11-11T03:54:27.786Z,5.45
2017-11-11T03:55:34.578Z,5.45
2017-11-11T03:56:41.367Z,5.45
2017-11-11T03:57:48.051Z,5.44
2017-11-11T03:58:54.774Z,5.44
2017-11-11T04:00:01.442Z,5.44
2017-11-11T04:01:08.170Z,5.44
2017-11-11T04:02:14.929Z,5.44
2017-11-11T04:03:21.777Z,5.43
2017-11-11T04:04:28.630Z,5.44
2017-11-11T04:05:35.429Z,5.44
2017-11-11T04:06:42.130Z,5.44
2017-11-11T04:07:49.306Z,5.45
2017-11-11T04:08:56.121Z,5.44
2017-11-11T04:10:02.830Z,5.43
2017-11-11T04:11:09.731Z,5.46
2017-11-11T04:12:16.465Z,5.45
2017-11-11T04:13:23.129Z,5.46
2017-11-11T04:14:29.997Z,5.45
2017-11-11T04:15:36.770Z,5.46
2017-11-11T04:16:43.534Z,5.45
2017-11-11T04:17:50.357Z,5.46
2017-11-11T04:18:57.082Z,5.46
2017-11-11T04:20:03.777Z,5.47
2017-11-11T04:21:10.604Z,5.45
2017-11-11T04:22:17.333Z,5.46
2017-11-11T04:23:24.213Z,5.47
2017-11-11T04:24:31.189Z,5.47
2017-11-11T04:25:38.092Z,5.46
2017-11-11T04:26:44.935Z,5.47
2017-11-11T04:27:51.770Z,5.45
2017-11-11T04:28:58.449Z,5.46
2017-11-11T04:30:05.755Z,5.47
2017-11-11T04:31:12.467Z,5.47
2017-11-11T04:32:19.309Z,5.48
2017-11-11T04:33:26.474Z,5.47
2017-11-11T04:34:33.241Z,5.48
2017-11-11T04:35:40.041Z,5.47
2017-11-11T04:36:46.829Z,5.46
2017-11-11T04:37:53.672Z,5.48
2017-11-11T04:39:00.542Z,5.48
2017-11-11T04:40:07.590Z,5.49
2017-11-11T04:41:14.522Z,5.47
2017-11-11T04:42:21.326Z,5.48
2017-11-11T04:43:28.215Z,5.49
2017-11-11T04:44:35.001Z,5.48
2017-11-11T04:45:41.886Z,5.47
2017-11-11T04:46:48.785Z,5.49
2017-11-11T04:47:55.537Z,5.47
2017-11-11T04:49:02.522Z,5.48
2017-11-11T04:50:09.445Z,5.49
2017-11-11T04:51:16.230Z,5.48
2017-11-11T04:52:22.915Z,5.49
2017-11-11T04:53:30.323Z,5.49
2017-11-11T04:54:37.067Z,5.51
2017-11-11T04:55:44.028Z,5.50
2017-11-11T04:56:50.814Z,5.50
2017-11-11T04:57:57.621Z,5.49
2017-11-11T04:59:04.446Z,5.50
2017-11-11T05:00:11.193Z,5.49
2017-11-11T05:01:17.905Z,5.49
2017-11-11T05:02:24.699Z,5.50
2017-11-11T05:03:31.502Z,5.51
2017-11-11T05:04:38.292Z,5.50
2017-11-11T05:05:45.230Z,5.49
2017-11-11T05:06:51.941Z,5.51
2017-11-11T05:07:58.751Z,5.50
2017-11-11T05:09:05.526Z,5.51
2017-11-11T05:10:12.330Z,5.52
2017-11-11T05:11:19.133Z,5.52
2017-11-11T05:12:25.993Z,5.51
2017-11-11T05:13:33.044Z,5.52
2017-11-11T05:14:39.810Z,5.53
2017-11-11T05:15:46.510Z,5.52
2017-11-11T05:16:53.583Z,5.53
2017-11-11T05:18:00.466Z,5.53
2017-11-11T05:19:07.396Z,5.53
2017-11-11T05:20:14.103Z,5.55
2017-11-11T05:21:20.959Z,5.53
2017-11-11T05:22:27.674Z,5.55
2017-11-11T05:23:34.598Z,5.53
2017-11-11T05:24:41.342Z,5.55
2017-11-11T05:25:48.062Z,5.54
2017-11-11T05:26:54.874Z,5.56
2017-11-11T05:28:01.544Z,5.57
2017-11-11T05:29:08.302Z,5.57
2017-11-11T05:30:14.999Z,5.57
2017-11-11T05:31:21.730Z,5.57
2017-11-11T05:32:28.654Z,5.58
2017-11-11T05:33:35.530Z,5.57
2017-11-11T05:34:42.226Z,5.57
2017-11-11T05:35:49.222Z,5.58
2017-11-11T05:36:55.894Z,5.57
2017-11-11T05:38:02.817Z,5.57
2017-11-11T05:39:09.550Z,5.57
2017-11-11T05:40:16.359Z,5.59
2017-11-11T05:41:23.231Z,5.59
2017-11-11T05:42:29.925Z,5.59
2017-11-11T05:43:36.656Z,5.59
2017-11-11T05:44:43.618Z,5.60
2017-11-11T05:45:50.483Z,5.60
2017-11-11T05:46:57.265Z,5.60
2017-11-11T05:48:04.041Z,5.61
2017-11-11T05:49:10.846Z,5.61
2017-11-11T05:50:17.738Z,5.59
2017-11-11T05:51:24.466Z,5.61
2017-11-11T05:52:31.167Z,5.62
2017-11-11T05:53:38.026Z,5.62
2017-11-11T05:54:45.021Z,5.62
2017-11-11T05:55:51.794Z,5.61
2017-11-11T05:56:58.574Z,5.63
2017-11-11T05:58:05.334Z,5.63
2017-11-11T05:59:12.026Z,5.62
2017-11-11T06:00:18.873Z,5.65
2017-11-11T06:01:25.725Z,5.65
2017-11-11T06:02:32.662Z,5.66
2017-11-11T06:03:39.434Z,5.65
2017-11-11T06:04:46.182Z,5.66
2017-11-11T06:05:53.070Z,5.67
2017-11-11T06:06:59.737Z,5.66
2017-11-11T06:08:06.526Z,5.67
2017-11-11T06:09:13.386Z,5.67
2017-11-11T06:10:20.328Z,5.68
2017-11-11T06:11:27.345Z,5.69
2017-11-11T06:12:34.152Z,5.68
2017-11-11T06:13:41.282Z,5.69
2017-11-11T06:14:48.102Z,5.69
2017-11-11T06:15:55.090Z,5.69
2017-11-11T06:17:02.081Z,5.70
2017-11-11T06:18:08.877Z,5.69
2017-11-11T06:19:15.696Z,5.70
2017-11-11T06:20:22.482Z,5.72
2017-11-11T06:21:29.302Z,5.72
2017-11-11T06:22:36.034Z,5.71
2017-11-11T06:23:43.262Z,5.71
2017-11-11T06:24:50.139Z,5.72
2017-11-11T06:25:56.901Z,5.73
2017-11-11T06:27:03.733Z,5.73
2017-11-11T06:28:10.866Z,5.73
2017-11-11T06:29:17.700Z,5.73
2017-11-11T06:30:24.599Z,5.73
2017-11-11T06:31:31.534Z,5.74
2017-11-11T06:32:38.357Z,5.75
2017-11-11T06:33:45.003Z,5.75
2017-11-11T06:34:52.298Z,5.76
2017-11-11T06:35:59.174Z,5.75
2017-11-11T06:37:05.854Z,5.76
2017-11-11T06:38:13.058Z,5.78
2017-11-11T06:39:19.798Z,5.79
2017-11-11T06:40:26.638Z,5.78
2017-11-11T06:41:33.670Z,5.77
2017-11-11T06:42:40.382Z,5.78
2017-11-11T06:43:47.190Z,5.78
2017-11-11T06:44:53.976Z,5.80
2017-11-11T06:46:00.799Z,5.78
2017-11-11T06:47:07.554Z,5.79
2017-11-11T06:48:14.819Z,5.80
2017-11-11T06:49:21.514Z,5.81
2017-11-11T06:50:28.814Z,5.81
2017-11-11T06:51:36.057Z,5.81
2017-11-11T06:52:42.352Z,5.80
2017-11-11T06:53:49.247Z,5.81
2017-11-11T06:54:55.967Z,5.82
2017-11-11T06:56:02.659Z,5.83
2017-11-11T06:57:09.994Z,5.83
2017-11-11T06:58:16.678Z,5.83
2017-11-11T06:59:23.899Z,5.82
2017-11-11T07:00:30.571Z,5.85
2017-11-11T07:01:37.477Z,5.85
2017-11-11T07:02:44.417Z,5.86
2017-11-11T07:03:51.190Z,5.85
2017-11-11T07:04:58.100Z,5.86
2017-11-11T07:06:04.725Z,5.86
2017-11-11T07:07:12.126Z,5.87
2017-11-11T07:08:18.926Z,5.87
2017-11-11T07:09:25.597Z,5.89
2017-11-11T07:10:32.614Z,5.88
2017-11-11T07:11:39.470Z,5.89
2017-11-11T07:12:46.378Z,5.89
2017-11-11T07:13:53.046Z,5.88
2017-11-11T07:15:00.005Z,5.88
2017-11-11T07:16:06.822Z,5.88
2017-11-11T07:17:13.712Z,5.89
2017-11-11T07:18:20.454Z,5.91
2017-11-11T07:19:27.394Z,5.92
2017-11-11T07:20:34.261Z,5.91
2017-11-11T07:21:41.058Z,5.91
2017-11-11T07:22:47.933Z,5.92
2017-11-11T07:23:54.846Z,5.93
2017-11-11T07:25:01.670Z,5.92
2017-11-11T07:26:08.426Z,5.93
2017-11-11T07:27:15.242Z,5.93
2017-11-11T07:28:22.031Z,5.94
2017-11-11T07:29:29.002Z,5.95
2017-11-11T07:30:35.982Z,5.95
2017-11-11T07:31:42.682Z,5.96
2017-11-11T07:32:49.561Z,5.96
2017-11-11T07:33:56.466Z,5.96
2017-11-11T07:35:03.398Z,5.97
2017-11-11T07:36:10.329Z,5.98
2017-11-11T07:37:16.975Z,5.98
2017-11-11T07:38:23.707Z,5.98
2017-11-11T07:39:30.511Z,5.98
2017-11-11T07:40:37.314Z,6.00
2017-11-11T07:41:44.066Z,6.00
2017-11-11T07:42:50.764Z,6.01
2017-11-11T07:43:57.566Z,6.01
2017-11-11T07:45:04.278Z,6.02
2017-11-11T07:46:11.158Z,6.03
2017-11-11T07:47:17.899Z,6.02
2017-11-11T07:48:24.757Z,6.03
2017-11-11T07:49:31.498Z,6.04
2017-11-11T07:50:38.221Z,6.04
2017-11-11T07:51:45.170Z,6.05
2017-11-11T07:52:51.961Z,6.05
2017-11-11T07:53:58.694Z,6.07
2017-11-11T07:55:05.442Z,6.07
2017-11-11T07:56:12.307Z,6.07
2017-11-11T07:57:19.357Z,6.06
2017-11-11T07:58:26.226Z,6.08
2017-11-11T07:59:33.015Z,6.08
2017-11-11T08:00:39.727Z,6.08
2017-11-11T08:01:46.594Z,6.10
2017-11-11T08:02:53.329Z,6.08
2017-11-11T08:04:00.286Z,6.12
2017-11-11T08:05:07.130Z,6.10
2017-11-11T08:06:13.890Z,6.12
2017-11-11T08:07:20.718Z,6.12
2017-11-11T08:08:27.585Z,6.12
2017-11-11T08:09:34.278Z,6.14
2017-11-11T08:10:41.906Z,6.14
2017-11-11T08:11:48.699Z,6.14
2017-11-11T08:12:55.389Z,6.14
2017-11-11T08:14:02.228Z,6.15
2017-11-11T08:15:08.923Z,6.16
2017-11-11T08:16:16.249Z,6.15
2017-11-11T08:17:23.091Z,6.16
2017-11-11T08:18:29.910Z,6.18
2017-11-11T08:19:36.670Z,6.17
2017-11-11T08:20:43.486Z,6.20
2017-11-11T08:21:50.326Z,6.21
2017-11-11T08:22:57.400Z,6.20
2017-11-11T08:24:04.206Z,6.21
2017-11-11T08:25:11.086Z,6.21
2017-11-11T08:26:18.103Z,6.23
2017-11-11T08:27:25.018Z,6.23
2017-11-11T08:28:31.826Z,6.23
2017-11-11T08:29:38.802Z,6.24
2017-11-11T08:30:45.701Z,6.25
2017-11-11T08:31:52.557Z,6.24
2017-11-11T08:32:59.347Z,6.25
2017-11-11T08:34:06.352Z,6.25
2017-11-11T08:35:13.458Z,6.25
2017-11-11T08:36:20.219Z,6.28
2017-11-11T08:37:27.075Z,6.28
2017-11-11T08:38:33.820Z,6.29
2017-11-11T08:39:41.313Z,6.30
2017-11-11T08:40:48.221Z,6.30
2017-11-11T08:41:55.058Z,6.30
2017-11-11T08:43:01.869Z,6.30
2017-11-11T08:44:08.594Z,6.33
2017-11-11T08:45:15.474Z,6.33
2017-11-11T08:46:22.307Z,6.33
2017-11-11T08:47:29.029Z,6.34
2017-11-11T08:48:35.834Z,6.34
2017-11-11T08:49:42.778Z,6.35
2017-11-11T08:50:49.770Z,6.36
2017-11-11T08:51:56.742Z,6.35
2017-11-11T08:53:03.743Z,6.37
2017-11-11T08:54:10.605Z,6.38
2017-11-11T08:55:17.534Z,6.39
2017-11-11T08:56:24.827Z,6.38
2017-11-11T08:57:31.392Z,6.38
2017-11-11T08:58:38.324Z,6.39
2017-11-11T08:59:45.193Z,6.40
2017-11-11T09:00:51.939Z,6.41
2017-11-11T09:01:58.818Z,6.42
2017-11-11T09:03:05.681Z,6.42
2017-11-11T09:04:12.559Z,6.44
2017-11-11T09:05:19.442Z,6.45
2017-11-11T09:06:26.183Z,6.45
2017-11-11T09:07:33.094Z,6.45
2017-11-11T09:08:39.851Z,6.46
2017-11-11T09:09:46.731Z,6.46
2017-11-11T09:10:53.598Z,6.48
2017-11-11T09:12:00.315Z,6.48
2017-11-11T09:13:07.155Z,6.49
2017-11-11T09:14:14.069Z,6.50
2017-11-11T09:15:20.791Z,6.49
2017-11-11T09:16:27.599Z,6.50
2017-11-11T09:17:34.533Z,6.52
2017-11-11T09:18:41.294Z,6.53
2017-11-11T09:19:48.186Z,6.54
2017-11-11T09:20:54.946Z,6.55
2017-11-11T09:22:01.848Z,6.55
2017-11-11T09:23:08.583Z,6.57
2017-11-11T09:24:15.583Z,6.57
2017-11-11T09:25:22.491Z,6.56
2017-11-11T09:26:29.266Z,6.58
2017-11-11T09:27:36.035Z,6.57
2017-11-11T09:28:42.919Z,6.59
2017-11-11T09:29:49.688Z,6.60
2017-11-11T09:30:56.467Z,6.60
2017-11-11T09:32:03.266Z,6.61
2017-11-11T09:33:10.443Z,6.62
2017-11-11T09:34:17.478Z,6.63
2017-11-11T09:35:24.577Z,6.64
2017-11-11T09:36:31.019Z,6.66
2017-11-11T09:37:37.813Z,6.64
2017-11-11T09:38:44.637Z,6.66
2017-11-11T09:39:51.486Z,6.67
2017-11-11T09:40:58.414Z,6.67
2017-11-11T09:42:05.119Z,6.68
2017-11-11T09:43:11.902Z,6.69
2017-11-11T09:44:18.921Z,6.70
2017-11-11T09:45:25.603Z,6.69
2017-11-11T09:46:32.327Z,6.70
2017-11-11T09:47:39.283Z,6.70
2017-11-11T09:48:46.121Z,6.72
2017-11-11T09:49:53.292Z,6.71
2017-11-11T09:51:01.694Z,6.72
2017-11-11T09:52:07.153Z,6.73
2017-11-11T09:53:14.092Z,6.74
2017-11-11T09:54:21.032Z,6.76
2017-11-11T09:55:27.865Z,6.77
2017-11-11T09:56:34.715Z,6.77
2017-11-11T09:57:41.596Z,6.78
2017-11-11T09:58:48.365Z,6.78
2017-11-11T09:59:55.063Z,6.78
2017-11-11T10:01:01.780Z,6.80
2017-11-11T10:02:08.637Z,6.81
2017-11-11T10:03:15.534Z,6.82
2017-11-11T10:04:22.403Z,6.82
2017-11-11T10:05:29.367Z,6.81
2017-11-11T10:06:36.302Z,6.82
2017-11-11T10:07:43.112Z,6.84
2017-11-11T10:08:49.850Z,6.85
2017-11-11T10:09:56.658Z,6.86
2017-11-11T10:11:03.806Z,6.86
2017-11-11T10:12:10.710Z,6.87
2017-11-11T10:13:17.513Z,6.88
2017-11-11T10:14:24.318Z,6.89
2017-11-11T10:15:31.174Z,6.88
2017-11-11T10:16:38.046Z,6.90
2017-11-11T10:17:45.220Z,6.89
2017-11-11T10:18:51.951Z,6.91
2017-11-11T10:19:58.779Z,6.92
2017-11-11T10:21:05.708Z,6.92
2017-11-11T10:22:12.602Z,6.93
2017-11-11T10:23:19.599Z,6.95
2017-11-11T10:24:26.338Z,6.93
2017-11-11T10:25:33.183Z,6.95
2017-11-11T10:26:40.132Z,6.95
2017-11-11T10:27:46.975Z,6.97
2017-11-11T10:28:53.911Z,6.97
2017-11-11T10:30:00.854Z,6.98
2017-11-11T10:31:07.865Z,6.98
2017-11-11T10:32:15.184Z,7.00
2017-11-11T10:33:21.467Z,7.02
2017-11-11T10:34:28.628Z,7.00
2017-11-11T10:35:35.465Z,7.01
2017-11-11T10:36:42.363Z,7.02
2017-11-11T10:37:49.432Z,7.04
2017-11-11T10:38:56.483Z,7.05
2017-11-11T10:40:03.262Z,7.05
2017-11-11T10:41:10.053Z,7.06
2017-11-11T10:42:17.015Z,7.08
2017-11-11T10:43:23.959Z,7.08
2017-11-11T10:44:30.739Z,7.08
2017-11-11T10:45:37.690Z,7.10
2017-11-11T10:46:44.555Z,7.11
2017-11-11T10:47:51.348Z,7.10
2017-11-11T10:48:58.210Z,7.13
2017-11-11T10:50:05.197Z,7.13
2017-11-11T10:51:12.286Z,7.14
2017-11-11T10:52:19.083Z,7.15
2017-11-11T10:53:25.852Z,7.16
2017-11-11T10:54:32.722Z,7.15
2017-11-11T10:55:39.582Z,7.16
2017-11-11T10:56:46.755Z,7.17
2017-11-11T10:57:53.558Z,7.19
2017-11-11T10:59:00.734Z,7.20
2017-11-11T11:00:07.827Z,7.20
2017-11-11T11:01:14.913Z,7.19
2017-11-11T11:02:21.953Z,7.21
2017-11-11T11:03:28.917Z,7.23
2017-11-11T11:04:35.764Z,7.23
2017-11-11T11:05:42.806Z,7.24
2017-11-11T11:06:50.169Z,7.26
2017-11-11T11:07:56.673Z,7.28
2017-11-11T11:09:03.448Z,7.28
2017-11-11T11:10:10.536Z,7.28
2017-11-11T11:11:17.446Z,7.30
2017-11-11T11:12:24.867Z,7.31
2017-11-11T11:13:31.524Z,7.31
2017-11-11T11:14:38.339Z,7.33
2017-11-11T11:15:45.167Z,7.34
2017-11-11T11:16:51.991Z,7.35
2017-11-11T11:17:58.916Z,7.36
2017-11-11T11:19:05.604Z,7.37
2017-11-11T11:20:12.734Z,7.38
2017-11-11T11:21:19.886Z,7.39
2017-11-11T11:22:26.787Z,7.41
2017-11-11T11:23:33.769Z,7.42
2017-11-11T11:24:40.433Z,7.42
2017-11-11T11:25:47.567Z,7.42
2017-11-11T11:26:55.840Z,7.46
2017-11-11T11:28:01.285Z,7.47
2017-11-11T11:29:08.345Z,7.48
2017-11-11T11:30:15.267Z,7.48
2017-11-11T11:31:22.243Z,7.50
2017-11-11T11:32:29.139Z,7.53
2017-11-11T11:33:35.981Z,7.51
2017-11-11T11:34:43.152Z,7.52
2017-11-11T11:35:50.208Z,7.55
2017-11-11T11:36:57.215Z,7.56
2017-11-11T11:38:04.266Z,7.57
2017-11-11T11:39:11.203Z,7.57
2017-11-11T11:40:18.222Z,7.59
2017-11-11T11:41:25.115Z,7.59
2017-11-11T11:42:31.910Z,7.61
2017-11-11T11:43:38.745Z,7.61
2017-11-11T11:44:45.762Z,7.62
2017-11-11T11:45:52.763Z,7.65
2017-11-11T11:46:59.751Z,7.66
2017-11-11T11:48:06.627Z,7.67
2017-11-11T11:49:13.658Z,7.69
2017-11-11T11:50:20.550Z,7.69
2017-11-11T11:51:27.436Z,7.71
2017-11-11T11:52:34.705Z,7.71
2017-11-11T11:53:41.017Z,7.72
2017-11-11T11:54:47.810Z,7.74
2017-11-11T11:55:54.498Z,7.74
2017-11-11T11:57:01.386Z,7.75
2017-11-11T11:58:08.308Z,7.76
2017-11-11T11:59:15.107Z,7.78
2017-11-11T12:00:21.823Z,7.78
2017-11-11T12:01:28.756Z,7.80
2017-11-11T12:02:35.567Z,7.82
2017-11-11T12:03:42.378Z,7.83
2017-11-11T12:04:49.179Z,7.84
2017-11-11T12:05:55.976Z,7.85
2017-11-11T12:07:02.667Z,7.88
2017-11-11T12:08:09.526Z,7.90
2017-11-11T12:09:16.247Z,7.90
2017-11-11T12:10:23.054Z,7.90
2017-11-11T12:11:29.830Z,7.92
2017-11-11T12:12:36.611Z,7.94
2017-11-11T12:13:43.553Z,7.95
2017-11-11T12:14:50.358Z,7.96
2017-11-11T12:15:57.027Z,7.96
2017-11-11T12:17:04.307Z,7.98
2017-11-11T12:18:11.135Z,8.00
2017-11-11T12:19:18.146Z,7.99
2017-11-11T12:20:25.117Z,8.02
2017-11-11T12:21:31.906Z,8.02
2017-11-11T12:22:38.754Z,8.05
2017-11-11T12:23:45.721Z,8.06
2017-11-11T12:24:52.422Z,8.06
2017-11-11T12:25:59.454Z,8.06
2017-11-11T12:27:06.119Z,8.09
2017-11-11T12:28:13.081Z,8.10
2017-11-11T12:29:19.900Z,8.11
2017-11-11T12:30:27.034Z,8.12
2017-11-11T12:31:33.766Z,8.13
2017-11-11T12:32:40.563Z,8.15
2017-11-11T12:33:47.422Z,8.15
2017-11-11T12:34:54.226Z,8.17
2017-11-11T12:36:01.050Z,8.18
2017-11-11T12:37:08.178Z,8.18
2017-11-11T12:38:15.079Z,8.20
2017-11-11T12:39:22.030Z,8.20
2017-11-11T12:40:28.799Z,8.21
2017-11-11T12:41:35.574Z,8.23
2017-11-11T12:42:42.548Z,8.22
2017-11-11T12:43:49.415Z,8.23
2017-11-11T12:44:56.421Z,8.25
2017-11-11T12:46:03.314Z,8.26
2017-11-11T12:47:10.305Z,8.29
2017-11-11T12:48:17.210Z,8.29
2017-11-11T12:49:24.059Z,8.31
2017-11-11T12:50:30.911Z,8.30
2017-11-11T12:51:37.739Z,8.32
2017-11-11T12:52:44.705Z,8.33
2017-11-11T12:53:51.683Z,8.35
2017-11-11T12:54:58.544Z,8.36
2017-11-11T12:56:05.386Z,8.37
2017-11-11T12:57:12.197Z,8.37
2017-11-11T12:58:19.014Z,8.39
2017-11-11T12:59:25.982Z,8.39
2017-11-11T13:00:33.056Z,8.40
2017-11-11T13:01:39.862Z,8.41
2017-11-11T13:02:47.033Z,8.41
2017-11-11T13:03:53.943Z,8.44
2017-11-11T13:05:01.062Z,8.45
2017-11-11T13:06:08.146Z,8.47
2017-11-11T13:07:15.179Z,8.47
2017-11-11T13:08:22.049Z,8.49
2017-11-11T13:09:29.040Z,8.50
2017-11-11T13:10:35.871Z,8.51
2017-11-11T13:11:42.712Z,8.51
2017-11-11T13:12:49.622Z,8.53
2017-11-11T13:13:56.601Z,8.53
2017-11-11T13:15:03.563Z,8.55
2017-11-11T13:16:10.309Z,8.55
2017-11-11T13:17:17.241Z,8.58
2017-11-11T13:18:23.974Z,8.59
2017-11-11T13:19:30.686Z,8.58
2017-11-11T13:20:37.647Z,8.60
2017-11-11T13:21:44.434Z,8.61
2017-11-11T13:22:51.410Z,8.63
2017-11-11T13:23:58.406Z,8.62
2017-11-11T13:25:05.313Z,8.63
2017-11-11T13:26:12.161Z,8.65
2017-11-11T13:27:18.958Z,8.67
2017-11-11T13:28:26.034Z,8.66
2017-11-11T13:29:32.420Z,8.68
2017-11-11T13:30:39.277Z,8.67
2017-11-11T13:31:46.627Z,8.69
2017-11-11T13:32:52.926Z,8.70
2017-11-11T13:33:59.722Z,8.73
2017-11-11T13:35:06.449Z,8.73
2017-11-11T13:36:13.303Z,8.74
2017-11-11T13:37:20.134Z,8.75
2017-11-11T13:38:27.051Z,8.74
2017-11-11T13:39:33.807Z,8.75
2017-11-11T13:40:40.626Z,8.76
2017-11-11T13:41:47.370Z,8.78
2017-11-11T13:42:54.238Z,8.77
2017-11-11T13:44:01.170Z,8.78
2017-11-11T13:45:07.981Z,8.80
2017-11-11T13:46:14.926Z,8.80
2017-11-11T13:47:21.927Z,8.81
2017-11-11T13:48:28.718Z,8.83
2017-11-11T13:49:35.870Z,8.84
2017-11-11T13:50:42.574Z,8.85
2017-11-11T13:51:49.435Z,8.86
2017-11-11T13:52:56.334Z,8.86
2017-11-11T13:54:03.049Z,8.86
2017-11-11T13:55:09.949Z,8.88
2017-11-11T13:56:16.755Z,8.89
2017-11-11T13:57:23.606Z,8.91
2017-11-11T13:58:30.322Z,8.91
2017-11-11T13:59:37.140Z,8.90
2017-11-11T14:00:43.931Z,8.93
2017-11-11T14:01:50.643Z,8.93
2017-11-11T14:02:57.424Z,8.94
2017-11-11T14:04:04.147Z,8.96
2017-11-11T14:05:11.114Z,8.96
2017-11-11T14:06:17.738Z,8.97
2017-11-11T14:07:25.020Z,8.98
2017-11-11T14:08:31.778Z,8.99
2017-11-11T14:09:38.602Z,8.99
2017-11-11T14:10:45.441Z,9.00
2017-11-11T14:11:52.378Z,8.99
2017-11-11T14:12:59.326Z,9.02
2017-11-11T14:14:06.131Z,9.02
2017-11-11T14:15:12.959Z,9.02
2017-11-11T14:16:19.720Z,9.04
2017-11-11T14:17:26.619Z,9.05
2017-11-11T14:18:33.414Z,9.06
2017-11-11T14:19:40.202Z,9.05
2017-11-11T14:20:46.995Z,9.07
2017-11-11T14:21:53.851Z,9.08
2017-11-11T14:23:00.686Z,9.09
2017-11-11T14:24:07.505Z,9.09
2017-11-11T14:25:14.397Z,9.11
2017-11-11T14:26:21.294Z,9.11
2017-11-11T14:27:28.168Z,9.12
2017-11-11T14:28:34.943Z,9.12
2017-11-11T14:29:41.991Z,9.13
2017-11-11T14:30:48.584Z,9.13
2017-11-11T14:31:55.402Z,9.14
2017-11-11T14:33:02.207Z,9.15
2017-11-11T14:34:09.066Z,9.15
2017-11-11T14:35:15.990Z,9.16
2017-11-11T14:36:23.016Z,9.16
2017-11-11T14:37:29.901Z,9.18
2017-11-11T14:38:36.898Z,9.19
2017-11-11T14:39:43.686Z,9.19
2017-11-11T14:40:50.723Z,9.21
2017-11-11T14:41:57.750Z,9.21
2017-11-11T14:43:04.649Z,9.21
2017-11-11T14:44:11.568Z,9.22
2017-11-11T14:45:18.442Z,9.23
2017-11-11T14:46:25.343Z,9.23
2017-11-11T14:47:32.134Z,9.25
2017-11-11T14:48:38.847Z,9.25
2017-11-11T14:49:45.764Z,9.26
2017-11-11T14:50:52.886Z,9.27